createdAt,value
2022-07-28T00:02:00.925Z,3.40
2022-07-28T00:05:18.120Z,3.70
2022-07-28T00:08:20.816Z,3.20
2022-07-28T00:11:17.318Z,3.60
2022-07-28T00:14:36.498Z,3.20
2022-07-28T00:17:32.702Z,4.20
2022-07-28T00:20:21.514Z,3.70
2022-07-28T00:26:31.610Z,3.50
2022-07-28T00:29:49.720Z,3.20
2022-07-28T00:33:03.027Z,3.50
2022-07-28T00:36:42.609Z,3.40
2022-07-28T00:39:41.299Z,3.80
2022-07-28T00:42:29.973Z,3.80
2022-07-28T00:45:39.171Z,3.30
2022-07-28T00:48:31.198Z,3.20
2022-07-28T00:51:38.899Z,3.20
2022-07-28T00:54:20.779Z,2.90
2022-07-28T00:57:33.327Z,3.30
2022-07-28T01:00:35.603Z,3.70
2022-07-28T01:03:43.467Z,3.30
2022-07-28T01:07:32.377Z,4.00
2022-07-28T01:11:05.355Z,3.50
2022-07-28T01:14:18.522Z,3.40
2022-07-28T01:17:45.055Z,3.30
2022-07-28T01:21:18.248Z,3.30
2022-07-28T01:25:06.331Z,3.40
2022-07-28T01:28:12.650Z,3.80
2022-07-28T01:31:12.970Z,4.10
2022-07-28T01:34:43.179Z,4.40
2022-07-28T01:38:00.421Z,3.70
2022-07-28T01:40:45.018Z,3.90
2022-07-28T01:44:01.184Z,4.10
2022-07-28T01:47:14.468Z,3.80
2022-07-28T01:50:15.768Z,3.90
2022-07-28T01:53:37.524Z,4.00
2022-07-28T01:56:57.851Z,3.40
2022-07-28T02:00:18.129Z,4.30
2022-07-28T02:03:36.568Z,4.40
2022-07-28T02:06:44.373Z,3.80
2022-07-28T02:09:50.464Z,4.00
2022-07-28T02:13:12.483Z,4.10
2022-07-28T02:16:18.132Z,3.50
2022-07-28T02:19:31.942Z,3.80
2022-07-28T02:22:21.149Z,3.30
2022-07-28T02:25:59.314Z,4.10
2022-07-28T02:29:48.116Z,4.30
2022-07-28T02:33:14.312Z,4.10
2022-07-28T02:36:37.692Z,4.10
2022-07-28T02:39:35.046Z,5.10
2022-07-28T02:42:40.991Z,4.50
2022-07-28T02:46:21.627Z,4.80
2022-07-28T02:49:31.313Z,4.40
2022-07-28T02:53:15.615Z,4.50
2022-07-28T02:56:23.484Z,4.60
2022-07-28T03:00:04.690Z,4.40
2022-07-28T03:03:10.475Z,4.60
2022-07-28T03:06:12.470Z,4.20
2022-07-28T03:09:36.389Z,5.00
2022-07-28T03:13:00.845Z,4.60
2022-07-28T03:16:03.835Z,5.10
2022-07-28T03:19:29.041Z,5.10
2022-07-28T03:23:00.393Z,4.60
2022-07-28T03:26:56.114Z,5.20
2022-07-28T03:30:26.502Z,5.00
2022-07-28T03:33:50.295Z,5.40
2022-07-28T03:37:20.247Z,4.80
2022-07-28T03:40:46.019Z,5.10
2022-07-28T03:43:57.218Z,5.00
2022-07-28T03:47:08.744Z,5.50
2022-07-28T03:50:24.976Z,4.60
2022-07-28T03:54:20.920Z,5.50
2022-07-28T03:58:03.049Z,5.00
2022-07-28T04:57:12.756Z,4.90
2022-07-28T05:00:00.626Z,4.80
2022-07-28T05:03:06.425Z,4.70
2022-07-28T05:06:07.794Z,4.10
2022-07-28T05:09:12.860Z,4.60
2022-07-28T05:12:06.192Z,4.30
2022-07-28T05:15:10.827Z,5.20
2022-07-28T05:21:01.124Z,4.70
2022-07-28T05:24:10.733Z,4.90
2022-07-28T05:27:18.901Z,4.50
2022-07-28T05:30:37.824Z,5.10
2022-07-28T05:33:18.081Z,4.90
2022-07-28T05:36:28.028Z,4.70
2022-07-28T05:39:50.465Z,4.60
2022-07-28T05:42:49.096Z,4.50
2022-07-28T05:45:53.384Z,5.20
2022-07-28T05:49:02.357Z,4.60
2022-07-28T05:52:08.690Z,4.10
2022-07-28T05:55:06.811Z,4.30
2022-07-28T05:58:19.060Z,4.40
2022-07-28T06:01:51.095Z,3.90
2022-07-28T06:05:04.217Z,4.10
2022-07-28T06:08:02.601Z,4.20
2022-07-28T06:11:09.421Z,4.40
2022-07-28T06:13:59.999Z,4.00
2022-07-28T06:17:04.636Z,4.10
2022-07-28T06:19:58.649Z,3.40
2022-07-28T06:22:50.386Z,3.70
2022-07-28T06:25:35.762Z,3.70
2022-07-28T06:28:39.076Z,3.50
2022-07-28T06:31:48.073Z,3.80
2022-07-28T06:34:56.630Z,3.50
2022-07-28T06:37:48.806Z,3.50
2022-07-28T06:40:45.118Z,3.30
2022-07-28T06:44:12.228Z,3.70
2022-07-28T06:47:27.665Z,3.90
2022-07-28T06:50:38.758Z,3.30
2022-07-28T06:54:10.750Z,3.10
2022-07-28T06:57:11.570Z,3.40
2022-07-28T07:00:20.129Z,3.20
2022-07-28T07:03:09.801Z,3.10
2022-07-28T07:06:04.599Z,3.30
2022-07-28T07:08:53.413Z,3.20
2022-07-28T07:12:15.369Z,3.50
2022-07-28T07:15:07.308Z,3.30
2022-07-28T07:18:18.416Z,3.30
2022-07-28T07:22:00.931Z,3.10
2022-07-28T07:25:08.611Z,3.80
2022-07-28T07:27:45.380Z,3.10
2022-07-28T07:30:49.505Z,3.20
2022-07-28T07:33:53.577Z,3.20
2022-07-28T07:36:44.170Z,3.40
2022-07-28T07:39:40.843Z,3.00
2022-07-28T07:42:30.975Z,3.50
2022-07-28T07:45:38.304Z,3.30
2022-07-28T07:49:06.384Z,3.50
2022-07-28T07:52:07.304Z,3.70
2022-07-28T07:55:11.710Z,3.70
2022-07-28T07:58:11.975Z,4.40
2022-07-28T08:01:09.348Z,3.50
2022-07-28T08:06:33.476Z,3.70
2022-07-28T08:09:30.057Z,3.80
2022-07-28T08:12:47.327Z,3.80
2022-07-28T08:15:44.330Z,3.80
2022-07-28T08:18:56.916Z,3.80
2022-07-28T08:21:36.911Z,3.40
2022-07-28T08:24:43.987Z,3.60
2022-07-28T08:27:31.640Z,3.80
2022-07-28T08:30:11.265Z,3.50
2022-07-28T08:32:56.392Z,2.90
2022-07-28T08:35:36.006Z,3.50
2022-07-28T08:38:21.464Z,3.30
2022-07-28T08:41:04.379Z,3.30
2022-07-28T08:43:40.539Z,3.40
2022-07-28T08:46:30.206Z,3.50
2022-07-28T08:49:14.914Z,3.40
2022-07-28T08:52:05.795Z,3.60
2022-07-28T08:54:51.534Z,3.70
2022-07-28T08:57:41.352Z,3.40
2022-07-28T09:00:13.428Z,3.60
2022-07-28T09:02:52.066Z,3.60
2022-07-28T09:05:25.515Z,3.60
2022-07-28T09:07:56.073Z,3.40
2022-07-28T09:10:25.340Z,3.30
2022-07-28T09:12:56.556Z,3.10
2022-07-28T09:15:28.313Z,3.40
2022-07-28T09:18:02.182Z,3.30
2022-07-28T09:20:32.684Z,3.50
2022-07-28T09:23:42.941Z,3.30
2022-07-28T09:26:16.448Z,3.20
2022-07-28T09:28:51.951Z,3.30
2022-07-28T09:31:24.236Z,3.30
2022-07-28T09:33:56.848Z,3.00
2022-07-28T09:36:29.130Z,3.00
2022-07-28T09:38:59.776Z,3.00
2022-07-28T09:41:46.784Z,3.00
2022-07-28T09:46:54.765Z,2.70
2022-07-28T09:49:44.684Z,2.60
2022-07-28T09:52:27.687Z,3.00
2022-07-28T09:55:07.794Z,2.70
2022-07-28T09:57:42.673Z,3.20
2022-07-28T10:00:32.279Z,2.80
2022-07-28T10:03:03.850Z,3.20
2022-07-28T10:05:46.247Z,2.80
2022-07-28T10:08:19.764Z,2.90
2022-07-28T10:11:08.741Z,3.50
2022-07-28T10:13:59.851Z,3.70
2022-07-28T10:16:33.005Z,3.10
2022-07-28T10:19:07.416Z,3.10
2022-07-28T10:21:55.594Z,3.10
2022-07-28T10:24:34.708Z,3.30
2022-07-28T10:27:06.579Z,3.70
2022-07-28T10:29:55.324Z,4.20
2022-07-28T10:32:38.943Z,3.50
2022-07-28T10:35:14.612Z,3.40
2022-07-28T10:37:47.579Z,3.70
2022-07-28T10:40:23.297Z,3.40
2022-07-28T10:42:57.515Z,3.50
2022-07-28T10:45:48.078Z,3.30
2022-07-28T10:48:23.733Z,3.40
2022-07-28T10:53:48.364Z,3.20
2022-07-28T10:56:43.894Z,3.30
2022-07-28T10:59:41.975Z,3.90
2022-07-28T11:02:48.806Z,3.80
2022-07-28T11:05:39.808Z,3.80
2022-07-28T11:08:18.950Z,3.60
2022-07-28T11:11:00.687Z,3.80
2022-07-28T11:13:41.399Z,3.60
2022-07-28T11:16:20.360Z,3.60
2022-07-28T11:19:40.584Z,3.80
2022-07-28T11:22:18.380Z,3.60
2022-07-28T11:25:19.848Z,3.80
2022-07-28T11:28:00.605Z,3.70
2022-07-28T11:30:32.913Z,3.90
2022-07-28T11:33:05.267Z,4.10
2022-07-28T11:35:40.311Z,3.70
2022-07-28T11:38:15.648Z,3.90
2022-07-28T11:40:54.591Z,3.60
2022-07-28T11:43:37.476Z,4.40
2022-07-28T11:46:11.276Z,4.10
2022-07-28T11:48:47.536Z,3.80
2022-07-28T11:51:17.688Z,3.70
2022-07-28T11:53:51.872Z,4.20
2022-07-28T11:56:32.201Z,4.00
2022-07-28T11:59:07.368Z,4.00
2022-07-28T12:01:53.662Z,3.70
2022-07-28T12:04:28.019Z,3.70
2022-07-28T12:07:00.639Z,3.90
2022-07-28T12:09:42.344Z,4.40
2022-07-28T12:12:14.267Z,3.40
2022-07-28T12:14:46.757Z,3.80
2022-07-28T12:17:18.137Z,4.00
2022-07-28T12:19:49.137Z,3.40
2022-07-28T12:22:19.538Z,4.20
2022-07-28T12:24:58.322Z,4.20
2022-07-28T12:27:31.860Z,3.80
2022-07-28T12:30:03.212Z,4.00
2022-07-28T12:32:42.424Z,4.70
2022-07-28T12:35:12.695Z,3.50
2022-07-28T12:37:45.165Z,4.10
2022-07-28T12:40:18.240Z,4.20
2022-07-28T12:42:59.197Z,4.00
2022-07-28T12:45:33.744Z,3.70
2022-07-28T12:48:10.062Z,3.50
2022-07-28T12:50:41.398Z,3.80
2022-07-28T12:53:13.591Z,3.80
2022-07-28T12:55:45.185Z,3.50
2022-07-28T12:58:29.519Z,3.80
2022-07-28T13:01:00.473Z,3.70
2022-07-28T13:03:30.908Z,3.80
2022-07-28T13:06:12.286Z,3.60
2022-07-28T13:08:48.157Z,3.80
2022-07-28T13:14:10.560Z,3.60
2022-07-28T13:16:41.303Z,4.30
2022-07-28T13:19:22.218Z,3.80
2022-07-28T13:22:01.737Z,4.00
2022-07-28T13:24:33.132Z,4.20
2022-07-28T13:27:04.793Z,4.00
2022-07-28T13:29:36.306Z,4.00
2022-07-28T13:32:05.880Z,4.90
2022-07-28T13:34:40.335Z,4.80
2022-07-28T13:37:12.169Z,3.90
2022-07-28T13:39:42.485Z,4.70
2022-07-28T13:42:11.545Z,3.90
2022-07-28T13:44:46.476Z,4.20
2022-07-28T13:47:17.303Z,4.00
2022-07-28T13:49:52.410Z,3.90
2022-07-28T13:52:32.490Z,4.30
2022-07-28T13:55:06.502Z,4.50
2022-07-28T13:57:37.163Z,4.20
2022-07-28T14:00:13.078Z,4.20
2022-07-28T14:02:46.055Z,3.90
2022-07-28T14:05:16.574Z,4.10
2022-07-28T14:08:30.151Z,4.40
2022-07-28T14:11:02.493Z,4.30
2022-07-28T14:13:38.480Z,4.90
2022-07-28T14:16:14.331Z,4.80
2022-07-28T14:18:49.840Z,5.00
2022-07-28T14:21:33.324Z,4.50
2022-07-28T14:24:07.517Z,4.80
2022-07-28T14:26:40.452Z,4.50
2022-07-28T14:29:28.165Z,4.60
2022-07-28T14:32:39.265Z,4.40
2022-07-28T14:35:17.059Z,4.20
2022-07-28T14:38:51.000Z,3.70
2022-07-28T14:41:11.669Z,4.20
2022-07-28T14:43:59.052Z,4.10
2022-07-28T14:46:45.628Z,4.20
2022-07-28T14:49:57.435Z,4.10
2022-07-28T14:52:35.899Z,4.30
2022-07-28T14:55:37.654Z,4.10
2022-07-28T14:58:22.313Z,3.80
2022-07-28T15:01:03.441Z,4.50
2022-07-28T15:04:04.503Z,4.40
2022-07-28T15:06:49.291Z,3.90
2022-07-28T15:09:50.543Z,4.40
2022-07-28T15:12:59.448Z,4.00
2022-07-28T15:16:36.974Z,4.50
2022-07-28T15:20:29.130Z,4.50
2022-07-28T15:23:09.571Z,4.10
2022-07-28T15:26:10.820Z,4.40
2022-07-28T15:29:28.163Z,4.10
2022-07-28T15:33:01.980Z,4.80
2022-07-28T15:36:03.737Z,4.40
2022-07-28T15:39:34.142Z,4.10
2022-07-28T15:42:39.362Z,4.50
2022-07-28T15:45:27.148Z,4.60
2022-07-28T15:48:41.767Z,4.10
2022-07-28T15:52:00.855Z,4.60
2022-07-28T15:55:31.482Z,4.40
2022-07-28T15:58:44.598Z,5.00
2022-07-28T16:02:05.574Z,4.40
2022-07-28T16:05:50.186Z,4.70
2022-07-28T16:09:45.326Z,4.40
2022-07-28T16:13:13.627Z,4.00
2022-07-28T16:16:45.313Z,4.10
2022-07-28T16:19:54.290Z,4.10
2022-07-28T16:23:33.578Z,3.80
2022-07-28T16:26:38.753Z,4.20
2022-07-28T16:30:14.211Z,4.30
2022-07-28T16:33:41.041Z,4.40
2022-07-28T16:37:18.951Z,3.80
2022-07-28T16:40:43.216Z,4.10
2022-07-28T16:44:17.605Z,4.20
2022-07-28T16:47:17.714Z,4.20
2022-07-28T16:49:58.538Z,4.00
2022-07-28T16:52:50.611Z,4.30
2022-07-28T16:55:43.708Z,4.50
2022-07-28T16:58:47.805Z,4.50
2022-07-28T17:01:20.952Z,4.30
2022-07-28T17:04:04.769Z,4.20
2022-07-28T17:07:45.613Z,4.60
2022-07-28T17:10:27.406Z,4.30
2022-07-28T17:13:51.038Z,4.10
2022-07-28T17:16:52.024Z,5.50
2022-07-28T17:20:41.641Z,3.80
2022-07-28T17:23:39.832Z,4.50
2022-07-28T17:29:35.671Z,3.80
2022-07-28T17:32:42.113Z,3.80
2022-07-28T17:35:34.416Z,4.30
2022-07-28T17:38:12.978Z,4.30
2022-07-28T17:43:29.211Z,4.30
2022-07-28T17:46:34.419Z,4.70
2022-07-28T17:49:26.667Z,4.70
2022-07-28T17:52:11.804Z,4.00
2022-07-28T17:55:58.101Z,3.90
2022-07-28T17:59:16.360Z,4.20
2022-07-28T18:02:05.678Z,4.30
2022-07-28T18:05:20.756Z,4.10
2022-07-28T18:08:16.517Z,4.20
2022-07-28T18:11:21.121Z,3.90
2022-07-28T18:14:36.222Z,4.90
2022-07-28T18:18:08.638Z,4.30
2022-07-28T18:20:56.536Z,4.00
2022-07-28T18:23:42.099Z,4.10
2022-07-28T18:26:38.660Z,4.10
2022-07-28T18:29:38.265Z,4.50
2022-07-28T18:32:57.580Z,4.40
2022-07-28T18:36:03.896Z,5.00
2022-07-28T18:39:04.271Z,4.60
2022-07-28T18:42:06.832Z,5.10
2022-07-28T18:45:21.998Z,5.20
2022-07-28T18:48:11.906Z,5.40
2022-07-28T18:51:15.552Z,5.30
2022-07-28T18:54:33.964Z,5.30
2022-07-28T18:57:47.938Z,5.70
2022-07-28T19:00:53.810Z,5.70
2022-07-28T19:04:17.922Z,4.70
2022-07-28T19:07:14.238Z,4.50
2022-07-28T19:10:33.070Z,4.60
2022-07-28T19:13:56.985Z,4.50
2022-07-28T19:17:26.952Z,4.50
2022-07-28T19:20:55.223Z,4.30
2022-07-28T19:23:57.068Z,4.60
2022-07-28T19:27:02.529Z,4.60
2022-07-28T19:30:33.087Z,4.70
2022-07-28T19:34:09.613Z,4.70
2022-07-28T19:36:58.850Z,4.90
2022-07-28T19:40:12.580Z,5.00
2022-07-28T19:43:49.114Z,4.90
2022-07-28T19:47:05.217Z,4.80
2022-07-28T19:50:25.695Z,4.50
2022-07-28T19:54:11.351Z,4.70
2022-07-28T19:57:42.628Z,4.80
2022-07-28T20:01:00.537Z,4.20
2022-07-28T20:04:39.648Z,5.20
2022-07-28T20:08:11.907Z,5.30
2022-07-28T20:14:48.728Z,4.90
2022-07-28T20:18:47.585Z,5.20
2022-07-28T20:22:28.684Z,5.00
2022-07-28T20:25:13.694Z,4.70
2022-07-28T20:28:14.343Z,5.10
2022-07-28T20:31:12.440Z,5.40
2022-07-28T20:34:19.430Z,5.40
2022-07-28T20:36:55.194Z,5.20
2022-07-28T20:39:45.598Z,5.30
2022-07-28T20:42:23.326Z,5.20
2022-07-28T20:45:42.793Z,5.30
2022-07-28T20:48:40.991Z,5.30
2022-07-28T20:51:50.916Z,4.90
2022-07-28T20:54:56.367Z,5.40
2022-07-28T20:58:14.330Z,5.40
2022-07-28T21:01:32.571Z,5.60
2022-07-28T21:04:34.206Z,5.10
2022-07-28T21:08:04.577Z,5.80
2022-07-28T21:10:49.930Z,5.20
2022-07-28T21:14:11.273Z,5.40
2022-07-28T21:17:33.843Z,5.20
2022-07-28T21:20:37.186Z,5.10
2022-07-28T21:23:54.444Z,5.60
2022-07-28T21:27:29.850Z,5.50
2022-07-28T21:31:05.094Z,5.60
2022-07-28T21:34:15.344Z,4.60
2022-07-28T21:37:28.351Z,4.70
2022-07-28T21:40:40.013Z,5.10
2022-07-28T21:44:03.846Z,5.50
2022-07-28T21:47:14.115Z,5.40
2022-07-28T21:50:24.522Z,5.00
2022-07-28T21:53:46.860Z,4.40
2022-07-28T21:56:34.890Z,4.70
2022-07-28T21:59:44.135Z,5.00
2022-07-28T22:05:54.088Z,5.30
2022-07-28T22:08:55.939Z,5.70
2022-07-28T22:11:59.385Z,5.10
2022-07-28T22:15:43.462Z,5.10
2022-07-28T22:19:13.306Z,5.00
2022-07-28T22:22:35.479Z,5.30
2022-07-28T22:26:01.532Z,4.90
2022-07-28T22:29:10.081Z,5.80
2022-07-28T22:32:42.287Z,5.60
2022-07-28T22:35:48.118Z,5.60
2022-07-28T22:39:04.343Z,4.90
2022-07-28T22:42:07.101Z,4.90
2022-07-28T22:45:11.326Z,5.20
2022-07-28T22:48:19.001Z,4.80
2022-07-28T22:51:54.526Z,5.30
2022-07-28T22:55:19.523Z,5.50
2022-07-28T22:58:44.193Z,5.20
2022-07-28T23:01:56.579Z,5.00
2022-07-28T23:05:00.461Z,5.30
2022-07-28T23:07:59.646Z,5.20
2022-07-28T23:11:24.771Z,4.90
2022-07-28T23:14:44.430Z,5.00
2022-07-28T23:18:20.149Z,4.70
2022-07-28T23:21:40.802Z,4.90
2022-07-28T23:24:41.301Z,5.00
2022-07-28T23:28:16.938Z,4.90
2022-07-28T23:32:07.328Z,5.40
2022-07-28T23:38:28.742Z,5.50
2022-07-28T23:41:47.985Z,5.00
2022-07-28T23:45:09.661Z,5.30
2022-07-28T23:48:53.909Z,5.20
2022-07-28T23:52:21.487Z,5.30
2022-07-28T23:56:06.130Z,4.70
2022-07-28T23:59:25.926Z,5.70
